Tiempo atmosférico en la estación meteorológica de San Vicente de la Barquera, Cantabria (39 m.)



Fecha
DESCASC
Temp. máxima en grados centígrados (hora)
DESCASC
Temp. mínima en grados centígrados (hora)
DESCASC
Temp. media en grados centígrados
DESCASC
Racha de viento máxima en m/sg (hora)
DESCASC
Velocidad máxima media en intervalos de 10 minutos(hora)
DESCASC
Precipitaciones diarias en mm
DESCASC
Precipitaciones de 00:00 a 06:00 en mm
DESCASC
Precipitaciones de 06:00 a 12:00 en mm
DESCASC
Precipitaciones de 12:00 a 18:00 en mm
DESCASC
Precipitaciones de 18:00 a 24:00 en mm
DESCASC
18-08-2019 21.9 (05:00) 16.6 (23:00) 19.3 11.39 (17:20) 7.78 (11:20) 12.8 0 1.2 11.3 0.3
17-08-2019 26.4 (15:30) 16.4 (07:20) 21.4 5.83 (20:50) 3.33 (07:20) 0 0 0 0 0
16-08-2019 23.8 (16:30) 14.7 (07:10) 19.2 6.67 (20:30) 4.17 (17:40) 0 0 0 0 0
15-08-2019 22.5 (19:20) 18.3 (00:00) 20.4 10.28 (04:00) 6.94 (02:20) 2.9 2.8 0.1 0 0
14-08-2019 24.7 (17:30) 15 (00:00) 19.9 8.61 (23:59) 5.28 (23:59) 0 0 0 0 0
13-08-2019 22.2 (15:30) 14 (00:00) 18.1 7.78 (20:00) 5.28 (18:50) 0 0 0 0 0
12-08-2019 21.2 (16:00) 13.2 (00:00) 17.2 12.22 (12:40) 8.61 (12:40) 0 0 0 0 0
11-08-2019 21.6 (13:30) 15.6 (00:00) 18.6 10.28 (19:50) 5.56 (14:00) 9.7 0.1 0.2 7.2 2.2
10-08-2019 24.3 (11:40) 19.7 (00:00) 22 8.33 (05:30) 4.44 (05:30) 0.3 0.2 0.1 0 0
09-08-2019 29.8 (03:10) 21.3 (00:00) 25.5 15.83 (05:00) 10 (05:00) 0.1 0 0.1 0 0
08-08-2019 31.2 (23:40) 18.7 (00:00) 25 10.83 (23:59) 6.67 (23:59) 0 0 0 0 0
07-08-2019 24.8 (15:10) 18.8 (00:00) 21.8 8.06 (16:50) 5.83 (16:50) 0 0 0 0 0
06-08-2019 24.1 (15:40) 16.2 (00:00) 20.2 7.5 (20:30) 4.17 (20:30) 11.3 0 0 0 11.3
05-08-2019 -- (--) -- (--) -- -- (--) -- (--) -- 0 -- -- 0
04-08-2019 23.6 (15:10) 19.6 (00:00) 21.6 3.61 (13:20) 2.78 (13:20) 0 0 0 0 0
03-08-2019 23.9 (14:50) 17 (00:00) 20.4 4.72 (14:40) 2.5 (14:20) 0 0 0 0 0
02-08-2019 22.8 (13:00) 14.6 (00:00) 18.7 9.72 (17:30) 6.67 (15:40) 0 0 0 0 0
01-08-2019 22.7 (19:00) 16 (00:00) 19.4 4.72 (19:40) 3.33 (19:40) 0.1 0 0.1 0 0
31-07-2019 21.6 (12:50) 13 (00:00) 17.3 10.56 (16:40) 7.78 (16:10) 0 0 0 0 0
30-07-2019 21.2 (15:50) 15.6 (00:00) 18.4 11.94 (14:30) 8.06 (12:00) 0.1 0 0 0 0.1
29-07-2019 23.7 (10:30) 16.4 (00:00) 20.1 14.17 (22:30) 8.89 (22:30) 0.2 0 0 0 0.2
28-07-2019 22.3 (15:50) 15 (00:00) 18.6 8.61 (20:00) 5.28 (19:10) 0 0 0 0 0
27-07-2019 20.4 (18:20) 15.2 (00:00) 17.8 13.06 (19:50) 6.11 (19:00) 9.7 4.4 1.7 3.4 0.2
26-07-2019 20.2 (00:00) 16.7 (00:00) 18.5 12.22 (16:20) 8.33 (16:20) 19.1 8.2 7.6 0 3.3
25-07-2019 24.9 (14:00) 20.1 (00:00) 22.5 10.83 (20:10) 8.33 (20:10) 0 0 0 0 0
24-07-2019 24.9 (16:10) 20.3 (00:00) 22.6 10.56 (02:30) 6.94 (02:30) 0.1 0 0.1 0 0
23-07-2019 24.3 (16:00) 20 (00:00) 22.1 9.17 (12:00) 5.83 (03:20) 0.5 0 0.2 0 0.3
22-07-2019 23.9 (15:50) 20.4 (00:00) 22.1 6.39 (23:00) 4.17 (13:00) 3.7 0 0 0 3.7
21-07-2019 22.5 (14:30) 18.6 (00:00) 20.6 9.17 (16:00) 6.39 (15:50) 2.1 2 0.1 0 0

Gráficas

Temp. máximas Temp. mínimas Temp. medias Precipitaciones Rachas de viento máximas Velocidades máximas media en intervalos de 10 minutos

Datos horarios

Fecha y hora oficial Temperatura (ºC) Velocidad del viento (km/h) Dirección del viento Racha (km/h) Dirección de racha Precipitación (mm) Presión (hPa) Tendencia (hPa) Humedad (%)
2019-08-19 23:00:00 16.9 8 Sudoeste 18 Sudoeste 0.1 1017.9 1 92
2019-08-19 22:00:00 17.5 10 Sudoeste 19 Sudoeste 0 1017.3 0.4 91
2019-08-19 21:00:00 19 0 Calma 26 Norte 0 1017.3 0.6 85
2019-08-19 20:00:00 19.5 2 Sudoeste 11 Nordeste 0 1016.9 0.2 82
2019-08-19 19:00:00 20.2 6 Nordeste 15 Este 0 1016.9 0.1 74
2019-08-19 18:00:00 20.5 6 Nordeste 14 Norte 0 1016.7 -0.3 76
2019-08-19 17:00:00 21.1 3 Este 16 Nordeste 0 1016.7 -0.3 76
2019-08-19 16:00:00 20.4 7 Nordeste 16 Norte 0 1016.8 0.1 79
2019-08-19 15:00:00 20.1 11 Nordeste 24 Nordeste 0 1017 0.6 77
2019-08-19 14:00:00 20.9 8 Nordeste 14 Nordeste 0 1017 0.7 69
2019-08-19 13:00:00 20.5 5 Nordeste 13 Este 0 1016.7 0.8 69
2019-08-19 12:00:00 20.3 6 Sudeste 21 Sudeste 0 1016.4 0.4 76
2019-08-19 11:00:00 18 10 Sudeste 18 Sudeste 0 1016.3 0.4 89
2019-08-19 10:00:00 17.1 10 Sudeste 18 Sur 0 1015.9 0.1 92
2019-08-19 09:00:00 16.3 10 Sur 16 Sur 0 1016 0.3 92
2019-08-19 08:00:00 15.8 6 Sudoeste 16 Sudoeste 0.1 1015.9 0.4 92
2019-08-19 07:00:00 16 9 Sur 33 Sur 1.2 1015.8 0.4 92
2019-08-19 06:00:00 16.5 10 Este 24 Nordeste 1 1015.7 -0.1 92
2019-08-19 05:00:00 16.9 6 Sudoeste 15 Sudoeste 0 1015.5 -0.5 89
2019-08-19 04:00:00 16.6 5 Sudoeste 12 Sudoeste 0 1015.4 -0.9 91
2019-08-19 03:00:00 16.7 4 Sudoeste 10 Sur 0 1015.8 -0.1 92
2019-08-19 02:00:00 16.7 6 Sur 15 Oeste 0 1016 0.3 91
2019-08-19 01:00:00 16.8 8 Oeste 17 Oeste 0 1016.3 1.5 91
2019-08-19 00:00:00 16.8 7 Sudoeste 18 Oeste 0 1015.9 1.6 91
2019-08-18 23:00:00 16.6 3 Sudoeste 14 Sudoeste 0 1015.7 1.9 92
2019-08-18 22:00:00 17 3 Sudoeste 18 Sudoeste 0 1014.8 1.2 92
2019-08-18 21:00:00 17.4 3 Sudoeste 15 Oeste 0 1014.3 0.9 92
2019-08-18 20:00:00 17.4 7 Oeste 22 Oeste 0.1 1013.8 0.8 92
2019-08-18 19:00:00 18 0 Calma 15 Oeste 0.2 1013.6 1.2 93
2019-08-18 18:00:00 17.6 15 Oeste 41 Noroeste 1.7 1013.4 1.7 93
2019-08-18 17:00:00 17.8 18 Noroeste 33 Noroeste 2.5 1013 1.4 93
2019-08-18 16:00:00 18.4 14 Noroeste 32 Noroeste 5.6 1012.4 1.6 93
2019-08-18 15:00:00 18.3 14 Noroeste 33 Noroeste 1.3 1011.7 1.9 93
2019-08-18 14:00:00 18.7 18 Noroeste 36 Noroeste 0.2 1011.6 2.5 93
2019-08-18 13:00:00 19.5 18 Noroeste 41 Noroeste 0 1010.8 2.2 93
2019-08-18 12:00:00 20 23 Noroeste 40 Noroeste 0.9 1009.8 2 93
2019-08-18 11:00:00 20.6 19 Noroeste 37 Noroeste 0.3 1009.1 2.3 93
2019-08-18 10:00:00 21.1 18 Noroeste 39 Noroeste 0 1008.6 2.4 92
2019-08-18 09:00:00 20.9 4 Sudoeste 10 Sur 0 1007.8 2.3 89
2019-08-18 08:00:00 20.3 8 Sur 11 Sudoeste 0 1006.8 1.2 90
2019-08-18 07:00:00 19.9 5 Sudoeste 12 Sudoeste 0 1006.2 0.8 91
2019-08-18 06:00:00 19.8 8 Sudoeste 10 Sudoeste 0 1005.5 0.3 91
2019-08-18 05:00:00 21.7 9 Oeste 23 Oeste 0 1005.6 0.1 88
2019-08-18 04:00:00 20.8 4 Oeste 21 Oeste 0 1005.4 -0.9 90
2019-08-18 03:00:00 19.7 7 Sudoeste 13 Sudoeste 0 1005.2 -1.9 92
2019-08-18 02:00:00 20 9 Sur 14 Sur 0 1005.5 -2.3 92
2019-08-18 01:00:00 20.2 9 Sur 12 Sur 0 1006.3 -1.5 92
2019-08-18 00:00:00 21.1 8 Sur 12 Sudoeste 0 1007.1 -0.6 90
2019-08-17 23:00:00 22.5 2 Sudeste 10 Este 0 1007.8 0 89
2019-08-17 22:00:00 22.9 5 Este 17 Este 0 1007.8 -0.6 87
2019-08-17 21:00:00 23.7 11 Este 21 Este 0 1007.7 -1.1 80
2019-08-17 20:00:00 24.8 5 Este 15 Nordeste 0 1007.8 -1.1 72
2019-08-17 19:00:00 25.1 5 Este 14 Este 0 1008.4 -0.9 73
2019-08-17 18:00:00 25.5 10 Nordeste 15 Nordeste 0 1008.8 -1 71
2019-08-17 17:00:00 25.8 9 Nordeste 14 Este 0 1008.9 -1.3 65
2019-08-17 16:00:00 26.2 8 Nordeste 12 Nordeste 0 1009.3 -1.4 66
2019-08-17 15:00:00 25.7 6 Nordeste 11 Este 0 1009.8 -1.2 72
2019-08-17 14:00:00 24 4 Nordeste 7 Norte 0 1010.2 -1 81
2019-08-17 13:00:00 24 3 Nordeste 7 Norte 0 1010.7 -0.3 77
2019-08-17 12:00:00 23 4 Norte 14 Oeste 0 1011 0.1 83
2019-08-17 11:00:00 23.1 8 Noroeste 13 Noroeste 0 1011.2 0.7 82
2019-08-17 10:00:00 22.2 2 Norte 13 Oeste 0 1011 0.6 84
2019-08-17 09:00:00 19.7 3 Sudoeste 16 Oeste 0 1010.9 0.6 90
2019-08-17 08:00:00 16.8 11 Sudoeste 14 Sudoeste 0 1010.5 -0.1 92
2019-08-17 07:00:00 16.8 10 Sur 14 Sudoeste 0 1010.4 -0.7 92
2019-08-17 06:00:00 16.9 6 Sur 13 Sudoeste 0 1010.3 -1.6 92
2019-08-17 05:00:00 16.7 10 Sudoeste 13 Sudoeste 0 1010.6 -1.9 92
2019-08-17 04:00:00 17.2 10 Sur 13 Sur 0 1011.1 -1.8 92
2019-08-17 03:00:00 17.5 10 Sudoeste 13 Sudoeste 0 1011.9 -1.1 92
2019-08-17 02:00:00 18 9 Sudoeste 14 Sur 0 1012.5 -0.8 92
2019-08-17 01:00:00 18.2 10 Sur 13 Sudoeste 0 1012.9 -0.2 92
2019-08-17 00:00:00 18.9 7 Sur 11 Sur 0 1013 0.3 91
2019-08-16 23:00:00 20 5 Oeste 12 Oeste 0 1013.3 1.2 88
2019-08-16 22:00:00 20.4 10 Oeste 19 Oeste 0 1013.1 0.7 88
2019-08-16 21:00:00 20.9 13 Noroeste 24 Noroeste 0 1012.7 0.1 88
2019-08-16 20:00:00 22.2 10 Oeste 18 Noroeste 0 1012.1 -0.3 81
2019-08-16 19:00:00 23.1 12 Noroeste 23 Noroeste 0 1012.4 -0.2 74
2019-08-16 18:00:00 23.4 13 Noroeste 22 Noroeste 0 1012.6 -0.4 74
2019-08-16 17:00:00 23.1 10 Noroeste 15 Noroeste 0 1012.4 -0.6 72
2019-08-16 16:00:00 22.9 5 Norte 12 Norte 0 1012.6 -1.1 77
2019-08-16 15:00:00 22.2 5 Norte 12 Norte 0 1013 -0.5 78
2019-08-16 14:00:00 21.8 5 Norte 19 Noroeste 0 1013 -0.7 78
2019-08-16 13:00:00 21.3 12 Noroeste 20 Noroeste 0 1013.7 -0.1 79
2019-08-16 12:00:00 21 5 Noroeste 15 Noroeste 0 1013.5 -0.5 81
2019-08-16 11:00:00 20.7 9 Noroeste 14 Noroeste 0 1013.7 -0.4 80
2019-08-16 10:00:00 19.8 3 Sur 10 Sudoeste 0 1013.8 -0.2 88
2019-08-16 09:00:00 16.9 6 Sudoeste 12 Sudoeste 0 1014 -0.2 92
2019-08-16 08:00:00 15 10 Sudoeste 14 Sudoeste 0 1014.1 -0.9 92
2019-08-16 07:00:00 14.9 11 Sudoeste 14 Sudoeste 0 1014 -1.2 92
2019-08-16 06:00:00 15.1 11 Sudoeste 14 Sudoeste 0 1014.2 -1.6 92
2019-08-16 05:00:00 15.4 10 Sudoeste 13 Sudoeste 0 1015 -1.4 92
2019-08-16 04:00:00 15.5 10 Sudoeste 14 Sudoeste 0 1015.2 -1.5 92
2019-08-16 03:00:00 16.5 9 Sur 15 Sur 0 1015.8 -1.4 92
2019-08-16 02:00:00 17.2 9 Sur 12 Sur 0 1016.4 -1.8 92
2019-08-16 01:00:00 18.3 6 Sudeste 15 Este 0 1016.7 -1.5 86
2019-08-16 00:00:00 18.9 5 Sudeste 18 Sudeste 0 1017.2 -0.5 85
2019-08-15 23:00:00 19.8 7 Sur 12 Este 0 1018.2 0.7 84
2019-08-15 22:00:00 20.7 9 Nordeste 17 Este 0 1018.2 0 77
2019-08-15 21:00:00 20.9 8 Nordeste 14 Este 0 1017.7 -0.9 72
2019-08-15 20:00:00 21.5 3 Norte 6 Norte 0 1017.5 -1.1 68
2019-08-15 19:00:00 21.7 0 Calma 5 Noroeste 0 1018.2 -0.7 66
2019-08-15 18:00:00 21.7 2 Noroeste 9 Norte 0 1018.6 -0.4 69
2019-08-15 17:00:00 21.2 5 Norte 14 Norte 0 1018.6 -0.4 71
2019-08-15 16:00:00 21.2 8 Norte 16 Norte 0 1018.9 -0.1 71
2019-08-15 15:00:00 21.4 11 Norte 17 Norte 0 1019 0.2 73
2019-08-15 14:00:00 21.2 11 Norte 19 Noroeste 0 1019 0.2 77
2019-08-15 13:00:00 21.2 6 Norte 17 Noroeste 0 1019 0.3 78
2019-08-15 12:00:00 20.8 7 Noroeste 15 Noroeste 0 1018.8 0.1 85
2019-08-15 11:00:00 20 0 Calma 15 Noroeste 0 1018.8 0.5 89
2019-08-15 10:00:00 19.4 10 Noroeste 17 Oeste 0 1018.7 1 91
2019-08-15 09:00:00 18.8 2 Oeste 12 Oeste 0 1018.7 1.1 92
2019-08-15 08:00:00 18.4 6 Oeste 19 Oeste 0 1018.3 1 92
2019-08-15 07:00:00 18.4 3 Sudoeste 31 Noroeste 0.1 1017.7 0.4 93
2019-08-15 06:00:00 18.4 17 Oeste 33 Noroeste 0.3 1017.6 0.4 93
2019-08-15 05:00:00 18.6 18 Noroeste 31 Noroeste 0.1 1017.3 0.2 93
2019-08-15 04:00:00 18.7 24 Noroeste 37 Noroeste 0.4 1017.3 0.4 93
2019-08-15 03:00:00 19.2 19 Noroeste 36 Noroeste 0.3 1017.2 0.3 93
2019-08-15 02:00:00 19.8 17 Noroeste 36 Noroeste 1 1017.1 0.3 93
2019-08-15 01:00:00 20.5 18 Noroeste 30 Noroeste 0.7 1016.9 0.4 93
2019-08-15 00:00:00 21.1 19 Noroeste 31 Noroeste 0 1016.9 0.7 92
2019-08-14 23:00:00 21.8 11 Noroeste 26 Oeste 0 1016.8 0.9 92
2019-08-14 22:00:00 21.7 16 Oeste 26 Oeste 0 1016.5 0.6 91
2019-08-14 21:00:00 22.1 8 Oeste 16 Oeste 0 1016.2 0.1 85
2019-08-14 20:00:00 22.7 9 Oeste 17 Oeste 0 1015.9 -0.2 80
2019-08-14 19:00:00 24.3 11 Noroeste 22 Noroeste 0 1015.9 -0.3 65
2019-08-14 18:00:00 23.8 7 Noroeste 15 Noroeste 0 1016.1 -0.1 62
2019-08-14 17:00:00 24.1 3 Norte 8 Norte 0 1016.1 -0.1 59
2019-08-14 16:00:00 23.7 0 Calma 10 Noroeste 0 1016.2 0.2 60
2019-08-14 15:00:00 24.2 5 Noroeste 18 Noroeste 0 1016.2 0.5 63
2019-08-14 14:00:00 23.6 14 Noroeste 22 Noroeste 0 1016.2 0.6 63
2019-08-14 13:00:00 23.2 12 Noroeste 18 Noroeste 0 1016 0.7 69
2019-08-14 12:00:00 22.7 9 Noroeste 17 Oeste 0 1015.7 0.1 67
2019-08-14 11:00:00 22.3 10 Noroeste 16 Noroeste 0 1015.6 0.3 68
2019-08-14 10:00:00 20.9 3 Sudoeste 14 Sur 0 1015.3 0.2 81
2019-08-14 09:00:00 16.9 11 Sur 14 Sur 0 1015.6 0.7 91
2019-08-14 08:00:00 15.9 6 Sudoeste 15 Sudoeste 0 1015.3 0.5 91
2019-08-14 07:00:00 15.3 9 Sudoeste 14 Sur 0 1015.1 0.2 92
2019-08-14 06:00:00 15.6 9 Sur 12 Sur 0 1014.9 -0.7 91
2019-08-14 05:00:00 15.7 10 Sur 15 Sudoeste 0 1014.8 -1.6 91
2019-08-14 04:00:00 15.8 9 Sudoeste 16 Sur 0 1014.9 -1.9 91
2019-08-14 03:00:00 15.2 12 Sur 16 Sur 0 1015.6 -1.7 92
2019-08-14 02:00:00 15.4 12 Sudoeste 14 Sudoeste 0 1016.4 -1 91
2019-08-14 01:00:00 16 9 Sur 12 Sudoeste 0 1016.8 -0.3 91
2019-08-14 00:00:00 16.9 8 Sudoeste 9 Sudoeste 0 1017.3 0.2 88
2019-08-13 23:00:00 18.2 6 Sur 15 Sudeste 0 1017.4 0.5 84
2019-08-13 22:00:00 19.5 9 Este 22 Nordeste 0 1017.1 0.3 76
2019-08-13 21:00:00 20.4 13 Este 25 Nordeste 0 1017.1 -0.2 71
2019-08-13 20:00:00 20.6 18 Nordeste 28 Este 0 1016.9 -0.9 69
2019-08-13 19:00:00 20.7 19 Este 27 Este 0 1016.8 -1.3 66
2019-08-13 18:00:00 21.1 18 Nordeste 26 Este 0 1017.3 -1.1 64
2019-08-13 17:00:00 21.3 13 Nordeste 23 Este 0 1017.8 -0.5 64
2019-08-13 16:00:00 21.6 14 Nordeste 23 Este 0 1018.1 -0.2 64
2019-08-13 15:00:00 21.6 12 Nordeste 24 Este 0 1018.4 -0.4 66
2019-08-13 14:00:00 21.6 13 Nordeste 24 Nordeste 0 1018.3 -0.8 65
2019-08-13 13:00:00 21.3 15 Nordeste -- -- -- 1018.3 -0.8 64
2019-08-13 12:00:00 21 14 Nordeste 20 Nordeste 0 1018.8 -0.1 66
2019-08-13 11:00:00 19.7 5 Nordeste 10 Sur 0 1019.1 0.2 72
2019-08-13 10:00:00 18.8 7 Sur 14 Sudoeste 0 1019.1 0.6 75
2019-08-13 09:00:00 15.7 10 Sudoeste 17 Sudoeste 0 1018.9 0.4 88
2019-08-13 08:00:00 14 12 Sudoeste 15 Sudoeste 0 1018.9 0.4 91
2019-08-13 07:00:00 14.2 10 Sudoeste 15 Sur 0 1018.5 -0.5 92
2019-08-13 06:00:00 14.4 9 Sudoeste 14 Sudoeste 0 1018.5 -1.1 92
2019-08-13 05:00:00 15.1 10 Sur 14 Sur 0 1018.5 -1.5 91
2019-08-13 04:00:00 15.4 8 Sudoeste 14 Sudoeste 0 1019 -1.7 91
2019-08-13 03:00:00 15.8 10 Sudoeste 13 Sudoeste 0 1019.6 -1.4 90
2019-08-13 02:00:00 16.5 8 Sur 12 Sur 0 1020 -0.8 91
2019-08-13 01:00:00 17.2 7 Sur 12 Sudoeste 0 1020.7 0.5 85
2019-08-13 00:00:00 17.8 6 Sudoeste 12 Sur 0 1021 1.4 83
2019-08-12 23:00:00 18.8 3 Sudoeste 18 Norte 0 1020.8 1.4 75
2019-08-12 22:00:00 19.2 10 Norte 18 Norte 0 1020.2 0.8 72
2019-08-12 21:00:00 19.1 8 Norte 15 Norte 0 1019.6 0.2 69
2019-08-12 20:00:00 19.6 7 Norte 22 Noroeste 0 1019.4 0.1 64
2019-08-12 19:00:00 20.4 15 Noroeste 26 Noroeste 0 1019.4 -0.1 65
2019-08-12 18:00:00 20.5 20 Noroeste 30 Noroeste 0 1019.4 -0.3 68
2019-08-12 17:00:00 20.9 24 Noroeste 39 Noroeste 0 1019.3 -0.3 65
2019-08-12 16:00:00 20.7 25 Noroeste 37 Noroeste 0 1019.5 -0.2 63
2019-08-12 15:00:00 21 19 Noroeste 37 Noroeste 0 1019.7 0.6 67
2019-08-12 14:00:00 20.8 20 Noroeste 34 Oeste 0 1019.6 1 69
2019-08-12 13:00:00 18.2 21 Noroeste 44 Noroeste 0 1019.7 1.3 79
2019-08-12 12:00:00 19.9 22 Oeste 39 Noroeste 0 1019.1 1.4 65
2019-08-12 11:00:00 19.6 20 Oeste 43 Oeste 0 1018.6 1.4 65
2019-08-12 10:00:00 18.6 18 Oeste 39 Oeste 0 1018.4 1.7 70
2019-08-12 09:00:00 16.6 2 Sudoeste 24 Oeste 0 1017.7 1.1 82
2019-08-12 08:00:00 13.6 7 Sudoeste 16 Sudoeste 0 1017.2 0.6 91
2019-08-12 07:00:00 13.5 7 Sudoeste 15 Sudoeste 0 1016.7 0.1 90
2019-08-12 06:00:00 14.5 6 Oeste 19 Oeste 0 1016.6 -0.3 90
2019-08-12 05:00:00 13.7 8 Sudoeste 15 Sur 0 1016.6 -0.4 92
2019-08-12 04:00:00 13.7 8 Sudoeste 14 Sudoeste 0 1016.6 -0.5 92
2019-08-12 03:00:00 13.9 8 Sudoeste 14 Sudoeste 0 1016.9 -0.1 92
2019-08-12 02:00:00 14.7 11 Sur 15 Sudoeste 0 1017 -0.2 92
2019-08-12 01:00:00 14.8 10 Sur 15 Sudoeste 0 1017.1 0.3 92
2019-08-12 00:00:00 15.9 6 Sudoeste 13 Sudoeste 0 1017 0.7 92
2019-08-11 23:00:00 15.9 9 Sur 14 Sur 0 1017.2 0.8 92
2019-08-11 22:00:00 16.4 6 Sur 14 Sur 0 1016.8 1.1 92
2019-08-11 21:00:00 16.4 9 Sur 29 Oeste 0.1 1016.3 0.8 92
2019-08-11 20:00:00 16.2 15 Oeste 37 Oeste 1.8 1016.4 0.8 91
2019-08-11 19:00:00 18 4 Sudoeste 13 Sur 0.3 1015.7 0.3 91
2019-08-11 18:00:00 18.2 6 Sur 13 Sur 0 1015.5 0.2 91
2019-08-11 17:00:00 18.3 3 Sur 9 Sur 1.5 1015.6 0.8 91
2019-08-11 16:00:00 18.5 0 Calma 13 Este 1.1 1015.4 0.3 92
2019-08-11 15:00:00 17.5 9 Nordeste 29 Norte 4.6 1015.3 0.5 92
2019-08-11 14:00:00 19.5 20 Norte 29 Noroeste 0 1014.8 0.4 82
2019-08-11 13:00:00 20.5 14 Noroeste 27 Noroeste 0 1015.1 0.9 79
2019-08-11 12:00:00 20.9 15 Noroeste 24 Oeste 0 1014.8 0.9 79
2019-08-11 11:00:00 20.5 12 Oeste 19 Noroeste 0 1014.4 1.1 82
2019-08-11 10:00:00 19.5 9 Oeste 18 Oeste 0 1014.2 1.1 88
2019-08-11 09:00:00 18.1 3 Sudoeste 11 Oeste 0 1013.9 0.4 90
2019-08-11 08:00:00 18 3 Sudoeste 19 Oeste 0 1013.3 -1 91
2019-08-11 07:00:00 17.5 4 Oeste 12 Sudeste 0.2 1013.1 -1 91
2019-08-11 06:00:00 18.1 2 Sudoeste 11 Sur 0.1 1013.5 -0.8 89
2019-08-11 05:00:00 18 3 Sudoeste 12 Sudoeste 0 1014.3 -0.8 89
2019-08-11 04:00:00 18.3 3 Sudoeste 10 Oeste 0 1014.1 -1.5 88
2019-08-11 03:00:00 18.4 7 Sudoeste 11 Sudoeste 0 1014.3 -1.7 88
2019-08-11 02:00:00 18.8 6 Sudoeste 11 Sur 0 1015.1 -1 89
2019-08-11 01:00:00 19.4 6 Sur 9 Sudoeste 0 1015.6 -0.7 88
2019-08-11 00:00:00 19.8 5 Sudoeste 6 Sudoeste 0 1016 -0.4 86
2019-08-10 23:00:00 20.1 4 Sur 7 Sur 0 1016.1 0.1 86
2019-08-10 22:00:00 20.8 3 Sur 6 Sur 0 1016.3 0.2 79
2019-08-10 21:00:00 21.2 0 Calma 4 Nordeste 0 1016.4 0.4 75
2019-08-10 20:00:00 21.5 2 Nordeste 6 Este 0 1016 -0.2 72
2019-08-10 19:00:00 21.7 2 Nordeste 10 Norte 0 1016.1 -0.3 71
2019-08-10 18:00:00 21.6 6 Norte 9 Norte 0 1016 -0.4 71
2019-08-10 17:00:00 21.9 6 Norte 17 Nordeste 0 1016.2 -0.1 68
2019-08-10 16:00:00 21.7 10 Norte 21 Norte 0 1016.4 -0.1 69
2019-08-10 15:00:00 21.9 9 Norte 23 Norte 0 1016.4 0 68
2019-08-10 14:00:00 22.5 8 Norte 20 Noroeste 0 1016.3 0.1 68
2019-08-10 13:00:00 22.2 8 Noroeste 22 Noroeste 0 1016.5 0.5 70
2019-08-10 12:00:00 23.2 5 Norte 13 Noroeste 0 1016.4 1.1 68
2019-08-10 11:00:00 23.4 4 Norte 8 Sudoeste 0.1 1016.2 1.4 69
2019-08-10 10:00:00 21.1 6 Sur 10 Sur 0 1016 1.9 85
2019-08-10 09:00:00 20.4 6 Sur 10 Sur 0 1015.3 2 86
2019-08-10 08:00:00 20 6 Sudoeste 9 Sudoeste 0 1014.8 1.5 82
2019-08-10 07:00:00 19.8 5 Sudoeste 17 Oeste 0 1014.1 1.2 84
2019-08-10 06:00:00 20 13 Oeste 30 Noroeste 0 1013.3 0.5 84
2019-08-10 05:00:00 20.9 6 Sudoeste 13 Sur 0 1013.3 0.6 90
2019-08-10 04:00:00 20.8 3 Sudeste 8 Nordeste 0 1012.9 0.7 90
2019-08-10 03:00:00 21.1 8 Norte 14 Norte 0.2 1012.8 0.7 88
2019-08-10 02:00:00 21.9 9 Norte 23 Norte 0 1012.7 1.2 86
2019-08-10 01:00:00 21.9 15 Norte 26 Norte 0 1012.2 1.6 87
2019-08-10 00:00:00 22.1 0 Calma 8 Oeste 0 1012.1 2.3 90
2019-08-09 23:00:00 21.7 3 Noroeste 7 Sudeste 0 1011.5 2.4 88
2019-08-09 22:00:00 21.9 4 Este 11 Nordeste 0 1010.6 2.1 89
2019-08-09 21:00:00 22.5 7 Este 14 Nordeste 0 1009.8 1.9 88
2019-08-09 20:00:00 23.5 0 Calma 12 Este 0 1009.1 1.5 82
2019-08-09 19:00:00 23.9 4 Este 12 Este 0 1008.5 1 80
2019-08-09 18:00:00 23.4 0 Calma 14 Este 0 1007.9 0.8 79
2019-08-09 17:00:00 23.3 6 Este 17 Este 0 1007.6 1.3 80
2019-08-09 16:00:00 23.3 5 Este 16 Este 0 1007.5 1.4 79
2019-08-09 15:00:00 23 5 Este 19 Este 0 1007.1 1.4 80
2019-08-09 14:00:00 23.1 7 Este 22 Este 0 1006.3 1.1 80
2019-08-09 13:00:00 22.6 8 Este 21 Este 0 1006.1 1.1 88
2019-08-09 12:00:00 22.3 16 Nordeste 23 Este 0 1005.7 1.3 90
2019-08-09 11:00:00 21.6 7 Este 18 Este 0 1005.2 1.3 92
2019-08-09 10:00:00 21.6 12 Nordeste 19 Nordeste 0.1 1005 1.4 92
2019-08-09 09:00:00 22.2 8 Nordeste 14 Este 0 1004.4 1.4 92
2019-08-09 08:00:00 22.2 4 Este 9 Este 0 1003.9 2 92
2019-08-09 07:00:00 22.2 4 Noroeste 14 Noroeste 0 1003.6 2.9 92
2019-08-09 06:00:00 22.3 11 Noroeste 48 Oeste 0 1003 2.2 92
2019-08-09 05:00:00 23.6 36 Oeste 57 Oeste 0 1001.9 0.7 90
2019-08-09 04:00:00 28.4 0 Calma 27 Oeste 0 1000.7 -1 53
2019-08-09 03:00:00 29.5 2 Sudoeste 33 Sur 0 1000.8 -0.9 50
2019-08-09 02:00:00 25.6 0 Calma 25 Oeste 0 1001.2 0.5 80
2019-08-09 01:00:00 25.1 7 Noroeste 29 Oeste 0 1001.7 1.5 79
2019-08-09 00:00:00 27.8 24 Oeste 39 Oeste 0 1001.7 1.6 60
2019-08-08 23:00:00 30.8 5 Sur 23 Sudoeste 0 1000.7 0.3 45
2019-08-08 22:00:00 28 2 Sur 19 Sudoeste 0 1000.2 -0.6 73
2019-08-08 21:00:00 27.3 8 Sur 15 Noroeste 0 1000.1 -1.4 79
2019-08-08 20:00:00 27.2 9 Noroeste 17 Oeste 0 1000.4 -1.8 78
2019-08-08 19:00:00 26.9 0 Calma 13 Noroeste 0 1000.8 -2.3 81
2019-08-08 18:00:00 28.4 4 Noroeste 18 Este 0 1001.5 -2.1 69
2019-08-08 17:00:00 27.4 5 Nordeste 15 Nordeste 0 1002.2 -1.8 72
2019-08-08 16:00:00 28 3 Norte 11 Oeste 0 1003.1 -1.2 72
2019-08-08 15:00:00 26.8 7 Noroeste 14 Noroeste 0 1003.6 -0.7 78
2019-08-08 14:00:00 25.8 4 Noroeste 19 Noroeste 0 1004 -0.3 81
2019-08-08 13:00:00 24.8 13 Noroeste 16 Noroeste 0 1004.3 -0.1 78
2019-08-08 12:00:00 23.7 7 Noroeste 13 Noroeste 0 1004.3 -0.1 83
2019-08-08 11:00:00 23.6 4 Noroeste 17 Noroeste 0 1004.3 0.1 82
2019-08-08 10:00:00 25 3 Sur 12 Sur 0 1004.4 -0.1 80
2019-08-08 09:00:00 21.6 6 Sudoeste 13 Sudoeste 0 1004.4 -0.6 88
2019-08-08 08:00:00 19.5 10 Sur 14 Sur 0 1004.2 -1.1 92
2019-08-08 07:00:00 18.8 10 Sur 13 Sur 0 1004.5 -1.1 92
2019-08-08 06:00:00 19.5 8 Sudoeste 12 Sudoeste 0 1005 -0.9 92
2019-08-08 05:00:00 19.7 5 Sudoeste 12 Sudoeste 0 1005.3 -0.9 92
2019-08-08 04:00:00 19.7 6 Sudoeste 12 Sudoeste 0 1005.6 -0.7 92
2019-08-08 03:00:00 20.2 8 Sudoeste 12 Sur 0 1005.9 -1.1 92
2019-08-08 02:00:00 20.5 5 Sur 10 Sur 0 1006.2 -1.2 92
2019-08-08 01:00:00 21.2 6 Sur 8 Sur 0 1006.3 -0.7 92
2019-08-08 00:00:00 21.7 3 Sur 7 Noroeste 0 1007 0.3 91
2019-08-07 23:00:00 22.3 4 Noroeste 6 Noroeste 0 1007.4 0.6 92
2019-08-07 22:00:00 22.4 3 Norte 5 Noroeste 0 1007 0.3 91
2019-08-07 21:00:00 22.9 0 Calma 4 Noroeste 0 1006.7 0.3 89
2019-08-07 20:00:00 23.3 0 Calma 8 Este 0 1006.8 0.4 89
2019-08-07 19:00:00 23.4 3 Nordeste 19 Nordeste 0 1006.7 -0.2 89
2019-08-07 18:00:00 23.3 16 Nordeste 26 Este 0 1006.4 -0.8 89
2019-08-07 17:00:00 23.7 19 Este 29 Este 0 1006.4 -1 87
2019-08-07 16:00:00 24.4 18 Nordeste 26 Este 0 1006.9 -1.1 83
2019-08-07 15:00:00 24.5 10 Nordeste 18 Este 0 1007.2 -1.1 85
2019-08-07 14:00:00 24.1 9 Nordeste 14 Nordeste 0 1007.4 -1 88
2019-08-07 13:00:00 23.3 7 Nordeste 12 Norte 0 1008 -0.6 89
2019-08-07 12:00:00 22.8 6 Norte 9 Norte 0 1008.3 0 89
2019-08-07 11:00:00 22.7 3 Norte 11 Noroeste 0 1008.4 0.4 88
2019-08-07 10:00:00 23.4 3 Noroeste 9 Sur 0 1008.6 0.9 88
2019-08-07 09:00:00 20.9 6 Sur 12 Sur 0 1008.3 0.9 92
2019-08-07 08:00:00 18.9 6 Sudoeste 11 Sudoeste 0 1008 0.8 92
2019-08-07 07:00:00 19.1 5 Sudoeste 8 Sudoeste 0 1007.7 0.5 92
2019-08-07 06:00:00 19.4 4 Sudoeste 14 Oeste 0 1007.4 0.3 92
2019-08-07 05:00:00 19.2 3 Oeste 10 Sur 0 1007.2 -0.3 92
2019-08-07 04:00:00 19.2 7 Sudoeste 13 Sudoeste 0 1007.2 -0.8 92
2019-08-07 03:00:00 19.9 5 Oeste 8 Oeste 0 1007.1 -1.6 92
2019-08-07 02:00:00 19.7 0 Calma 8 Sur 0 1007.5 -1.8 92
2019-08-07 01:00:00 19.8 6 Sur 10 Sur 0 1008 -1.6 92
2019-08-07 00:00:00 19.8 5 Sudeste 12 Sur 0 1008.7 -1.5 92
2019-08-06 23:00:00 19.9 7 Sur 17 Sur 4.4 1009.3 -0.5 92
2019-08-06 22:00:00 20 6 Sudoeste 17 Sudoeste 6.6 1009.6 0 92
2019-08-06 21:00:00 20.5 5 Sudoeste 27 Oeste 0.3 1010.2 1 91
2019-08-06 20:00:00 21.6 11 Oeste 15 Oeste 0 1009.8 0.9 90
2019-08-06 19:00:00 22.1 9 Oeste 17 Oeste 0 1009.6 0.5 87
2019-08-06 18:00:00 22.5 9 Oeste 14 Noroeste 0 1009.2 0.3 84
2019-08-06 17:00:00 23.4 7 Noroeste 13 Noroeste 0 1008.9 -0.2 80
2019-08-06 16:00:00 23.6 8 Noroeste 14 Noroeste 0 1009.1 -0.2 79
2019-08-06 15:00:00 22.9 11 Noroeste 19 Noroeste 0 1008.9 -0.5 86
2019-08-06 14:00:00 22.9 11 Noroeste 14 Noroeste 0 1009.1 -0.1 86
2019-08-06 13:00:00 22.5 5 Noroeste 13 Noroeste 0 1009.3 0.1 86
2019-08-06 12:00:00 21.6 3 Norte 8 Nordeste 0 1009.4 0.1 87
2019-08-06 11:00:00 21.4 3 Norte 12 Noroeste 0 1009.2 0.2 87
2019-08-06 10:00:00 20.8 3 Oeste 12 Sudoeste 0 1009.2 0.4 88
2019-08-06 09:00:00 18.3 8 Sudoeste 14 Sur 0 1009.3 0 91
2019-08-06 08:00:00 16.6 7 Sudoeste 13 Sudoeste 0 1009 -0.5 92
2019-08-06 07:00:00 16.3 10 Sudoeste 13 Sudoeste 0 1008.8 -1.1 92
2019-08-06 06:00:00 16.5 10 Sudoeste 13 Sudoeste 0 1009.3 -1 92
2019-08-06 05:00:00 16.7 10 Sudoeste 13 Sudoeste 0 1009.5 -1.1 92
2019-08-06 04:00:00 17.4 9 Sudoeste 12 Sudoeste 0 1009.9 -1.1 92
2019-08-06 03:00:00 17.6 9 Sudoeste 12 Sudoeste 0 1010.3 -1.2 91
2019-08-06 02:00:00 18.4 8 Sudoeste 12 Sur 0 1010.6 -1.1 92
2019-08-06 01:00:00 18.4 10 Sur 12 Sur 0 1011 -0.4 91
2019-08-06 00:00:00 19.1 7 Sur 9 Sudoeste 0 1011.5 0.5 91
2019-08-05 23:00:00 20.3 5 Sur 7 Sur 0 1011.7 1 91
2019-08-05 22:00:00 20.8 3 Sudeste 7 Este 0 1011.4 0.6 89
2019-08-05 21:00:00 21.9 6 Este 14 Nordeste 0 1011 -0.2 88
2019-08-05 20:00:00 22.2 11 Nordeste 15 Este 0 1010.7 -0.6 85
2019-08-05 19:00:00 23.2 9 Nordeste 13 Nordeste 0 1010.8 -0.6 79
2019-08-05 18:00:00 23.6 6 Nordeste 12 Este 0 1011.2 -0.4 80
2019-08-05 17:00:00 23.1 9 Nordeste 12 Nordeste 0 1011.3 -0.6 84
2019-08-05 16:00:00 22.9 7 Nordeste 13 Norte 0 1011.4 -- 81
2019-08-05 15:00:00 23.2 6 Nordeste 10 Norte 0 1011.6 -- 81
2019-08-05 14:00:00 22.4 9 Norte 13 Norte -- 1011.9 -- 86
2019-08-05 13:00:00 -- -- -- -- -- -- -- -- --
2019-08-05 12:00:00 -- -- -- -- -- -- -- -- --
2019-08-05 11:00:00 -- -- -- -- -- -- -- -- --
2019-08-05 10:00:00 19.1 5 Sur 11 Sudoeste 0 1012.5 0.6 92
2019-08-05 09:00:00 18 7 Sur 10 Sur 0 1012.6 0.6 93
2019-08-05 08:00:00 17.4 9 Sudoeste 13 Sur 0 1012.3 0.2 93
2019-08-05 07:00:00 17.1 11 Sur 14 Sudoeste 0 1011.9 -0.3 93
2019-08-05 06:00:00 17.4 8 Sudoeste 11 Sudoeste 0 1012 -0.4 92
2019-08-05 05:00:00 17.9 5 Sudoeste 13 Sudoeste 0 1012.1 -0.7 92
2019-08-05 04:00:00 18.1 9 Sudoeste 12 Sudoeste 0 1012.2 -1 92
2019-08-05 03:00:00 18.8 7 Sudoeste 12 Sur 0 1012.4 -1 92
2019-08-05 02:00:00 19.3 8 Sur 10 Sur 0 1012.8 -0.7 91
2019-08-05 01:00:00 20.3 2 Sur 4 Sur 0 1013.2 0.1 90
2019-08-05 00:00:00 20.7 0 Calma 6 Sur 0 1013.4 0.6 89
2019-08-04 23:00:00 20.9 4 Sur 7 Sur 0 1013.5 0.7 88
2019-08-04 22:00:00 21.1 4 Sudeste 8 Sur 0 1013.1 0.8 85
2019-08-04 21:00:00 21.4 4 Sudeste 8 Sudeste 0 1012.8 0.8 85
2019-08-04 20:00:00 21.5 4 Nordeste 7 Nordeste 0 1012.8 1 85
2019-08-04 19:00:00 21.6 5 Norte 8 Nordeste 0 1012.3 0 85
2019-08-04 18:00:00 22.3 5 Nordeste 11 Nordeste 0 1012 0 84
2019-08-04 17:00:00 23.2 5 Nordeste 10 Este 0 1011.8 -0.5 82
2019-08-04 16:00:00 22.4 5 Nordeste 10 Norte 0 1012.3 0.2 84
2019-08-04 15:00:00 22.9 7 Norte 11 Norte 0 1012 0.1 84
2019-08-04 14:00:00 22.2 9 Norte 13 Norte 0 1012.3 0.3 86
2019-08-04 13:00:00 22.1 8 Norte 12 Noroeste 0 1012.1 -0.1 88
2019-08-04 12:00:00 21.1 3 Noroeste 10 Norte 0 1011.9 -0.2 90
2019-08-04 11:00:00 21.4 6 Norte 10 Norte 0 1012 0.2 91
2019-08-04 10:00:00 21 0 Calma 7 Sur 0 1012.2 0.7 91
2019-08-04 09:00:00 20.2 4 Sur 6 Sur 0 1012.1 0.7 92
2019-08-04 08:00:00 19.9 3 Sudoeste 6 Sudoeste 0 1011.8 0.4 92
2019-08-04 07:00:00 19.8 3 Sudoeste 8 Sur 0 1011.5 0.1 92
2019-08-04 06:00:00 19.8 4 Sur 7 Sudoeste 0 1011.4 -0.1 92
2019-08-04 05:00:00 19.7 5 Sudoeste 8 Sur 0 1011.4 -0.3 92
2019-08-04 04:00:00 19.9 5 Sur 9 Sur 0 1011.4 -0.6 92
2019-08-04 03:00:00 20.2 5 Sur 7 Sur 0 1011.5 -0.5 91
2019-08-04 02:00:00 20.2 4 Sur 7 Sur 0 1011.7 -0.2 92
2019-08-04 01:00:00 20.7 3 Sur 8 Sudoeste 0 1012 0.6 91
2019-08-04 00:00:00 21.1 0 Calma 6 Sur 0 1012 0.8 90
2019-08-03 23:00:00 21.2 0 Calma 6 Norte 0 1011.9 0.8 89
2019-08-03 22:00:00 21.4 2 Norte 6 Norte 0 1011.4 0.6 89
2019-08-03 21:00:00 21.6 3 Oeste 9 Noroeste 0 1011.2 0.2 88
2019-08-03 20:00:00 21.8 6 Noroeste 10 Noroeste 0 1011.1 0.2 87
2019-08-03 19:00:00 21.9 4 Norte 11 Nordeste 0 1010.8 -0.3 85
2019-08-03 18:00:00 22.3 4 Norte 12 Norte 0 1011 -0.2 86
2019-08-03 17:00:00 22.9 8 Norte 12 Norte 0 1010.9 -0.1 85
2019-08-03 16:00:00 22.9 7 Norte 10 Nordeste 0 1011.1 0.2 84
2019-08-03 15:00:00 22.5 6 Noroeste 17 Noroeste 0 1011.2 0.3 83
2019-08-03 14:00:00 22.5 4 Norte 10 Oeste 0 1011 0.1 84
2019-08-03 13:00:00 22 6 Norte 14 Norte 0 1010.9 -0.1 86
2019-08-03 12:00:00 21.3 5 Norte 13 Nordeste 0 1010.9 -0.4 88
2019-08-03 11:00:00 20.8 5 Norte 11 Norte 0 1010.9 0 89
2019-08-03 10:00:00 20.3 3 Norte 8 Norte 0 1011 0.4 90
2019-08-03 09:00:00 19.2 0 Calma 8 Sudoeste 0 1011.3 0.4 93
2019-08-03 08:00:00 17.5 6 Sudoeste 10 Oeste 0 1010.9 -0.4 93
2019-08-03 07:00:00 17.5 6 Sudoeste 9 Sur 0 1010.6 -1.1 93
2019-08-03 06:00:00 17.8 7 Sur 8 Sur 0 1010.9 -1.2 92
2019-08-03 05:00:00 18.4 5 Sur 6 Sur 0 1011.3 -1 92
2019-08-03 04:00:00 18.8 0 Calma 8 Sudeste 0 1011.7 -1.1 91
2019-08-03 03:00:00 19.2 4 Sudeste 10 Sudeste 0 1012.1 -0.8 91
2019-08-03 02:00:00 19.2 3 Este 9 Sudeste 0 1012.3 -0.8 91
2019-08-03 01:00:00 18.9 5 Sudeste 13 Este 0 1012.8 0 91
2019-08-03 00:00:00 19.4 6 Este 18 Este 0 1012.9 0.2 91
2019-08-02 23:00:00 20.5 12 Este 28 Este 0 1013.1 0.4 91
2019-08-02 22:00:00 20.6 14 Este 28 Este 0 1012.8 0 89
2019-08-02 21:00:00 20.8 10 Este 30 Nordeste 0 1012.7 -0.4 89
2019-08-02 20:00:00 21 17 Este 26 Este 0 1012.7 -0.6 88
2019-08-02 19:00:00 21.2 20 Este 31 Este 0 1012.8 -0.9 88
2019-08-02 18:00:00 21.4 21 Este 35 Este 0 1013.1 -0.7 85
2019-08-02 17:00:00 21.7 23 Este 34 Este 0 1013.3 -0.6 86
2019-08-02 16:00:00 22 23 Este 33 Este 0 1013.7 -0.6 85
2019-08-02 15:00:00 22.3 20 Nordeste 30 Este 0 1013.8 -0.2 85
2019-08-02 14:00:00 22.3 21 Nordeste 29 Este 0 1013.9 -0.4 83
2019-08-02 13:00:00 22.5 14 Nordeste 22 Este 0 1014.3 0.2 82
2019-08-02 12:00:00 21.7 7 Nordeste 13 Nordeste 0 1014 0.6 84
2019-08-02 11:00:00 20.8 5 Norte 8 Norte 0 1014.3 1.3 82
2019-08-02 10:00:00 20.9 3 Este 10 Sudoeste 0 1014.1 1.3 81
2019-08-02 09:00:00 17.4 7 Sur 16 Sudoeste 0 1013.4 0.6 91
2019-08-02 08:00:00 14.9 11 Sudoeste 14 Sudoeste 0 1013 -0.1 92
2019-08-02 07:00:00 14.8 11 Sudoeste 15 Sudoeste 0 1012.8 -0.6 92
2019-08-02 06:00:00 14.9 9 Sudoeste 14 Sudoeste 0 1012.8 -0.7 92
2019-08-02 05:00:00 15.2 10 Sudoeste 14 Sudoeste 0 1013.1 -1 92
2019-08-02 04:00:00 15.4 10 Sudoeste 14 Sudoeste 0 1013.4 -0.9 92
2019-08-02 03:00:00 15.9 9 Sudoeste 12 Sudoeste 0 1013.5 -1 92
2019-08-02 02:00:00 16.4 10 Sudoeste 13 Sudoeste 0 1014.1 -0.3 92
2019-08-02 01:00:00 17.3 9 Sur 12 Sur 0 1014.3 0.7 92
2019-08-02 00:00:00 18 7 Sur 9 Sur 0 1014.5 1.2 91
2019-08-01 23:00:00 18.8 5 Sur 8 Sur 0 1014.4 1.4 91
2019-08-01 22:00:00 19.8 4 Este 14 Nordeste 0 1013.6 1.1 87
2019-08-01 21:00:00 20.8 10 Este 17 Nordeste 0 1013.3 0.9 83
2019-08-01 20:00:00 21.4 11 Nordeste 17 Este 0 1013 1 80
2019-08-01 19:00:00 22.1 8 Nordeste 13 Este 0 1012.5 0.6 78
2019-08-01 18:00:00 22.2 7 Nordeste 12 Nordeste 0 1012.4 0.6 80
2019-08-01 17:00:00 22 8 Nordeste 13 Norte 0 1012 0.1 82
2019-08-01 16:00:00 21.7 8 Norte 15 Norte 0 1011.9 0 85
2019-08-01 15:00:00 20.9 7 Norte 15 Norte 0 1011.8 0 86
2019-08-01 14:00:00 21.7 7 Noroeste 15 Noroeste 0 1011.9 0.2 84
2019-08-01 13:00:00 20.8 5 Norte 15 Noroeste 0 1011.9 0.3 86
2019-08-01 12:00:00 20 4 Nordeste 9 Sudoeste 0 1011.8 0.3 90
2019-08-01 11:00:00 18.3 6 Sudoeste 12 Sudoeste 0 1011.7 0.5 92
2019-08-01 10:00:00 17.4 5 Sudoeste 13 Sudoeste 0 1011.6 0.4 92
2019-08-01 09:00:00 16.6 6 Sudoeste 16 Sudoeste 0 1011.5 0 92
2019-08-01 08:00:00 16.5 8 Sudoeste 14 Sudoeste 0 1011.2 -0.5 92
2019-08-01 07:00:00 16.5 7 Sur 12 Sur 0.1 1011.2 -0.6 92
2019-08-01 06:00:00 16.3 7 Sur 10 Sudoeste 0 1011.5 -0.9 92
2019-08-01 05:00:00 16.4 7 Sur 16 Sur 0 1011.7 -1.2 91
2019-08-01 04:00:00 16.6 9 Sur 13 Sudoeste 0 1011.8 -1.6 91
2019-08-01 03:00:00 16.3 10 Sudoeste 13 Sudoeste 0 1012.4 -1.2 91
2019-08-01 02:00:00 16.5 10 Sudoeste 13 Sur 0 1012.9 -1 91
2019-08-01 01:00:00 17.1 9 Sur 14 Sudeste 0 1013.4 -0.2 90
2019-08-01 00:00:00 18.3 9 Sudeste 16 Sudeste 0 1013.6 0.2 83
2019-07-31 23:00:00 18.9 8 Sudeste 19 Este 0 1013.9 0.7 82
2019-07-31 22:00:00 19.7 9 Este 23 Este 0 1013.6 0.3 81
2019-07-31 21:00:00 19.8 13 Este 26 Este 0 1013.4 -0.2 79
2019-07-31 20:00:00 19.9 17 Este 29 Este 0 1013.2 -0.5 81
2019-07-31 19:00:00 19.9 21 Este 31 Este 0 1013.3 -0.7 79
2019-07-31 18:00:00 20.2 23 Este 36 Este 0 1013.6 -0.7 78
2019-07-31 17:00:00 20.2 25 Este 38 Este 0 1013.7 -1.1 77
2019-07-31 16:00:00 20.5 26 Este 37 Nordeste 0 1014 -1.5 77
2019-07-31 15:00:00 20.7 24 Nordeste 35 Este 0 1014.3 -1.6 68
2019-07-31 14:00:00 21.3 18 Nordeste 27 Este 0 1014.8 -1.1 64
2019-07-31 13:00:00 21.1 13 Nordeste 21 Este 0 1015.5 -0.3 66
2019-07-31 12:00:00 21 10 Nordeste 20 Nordeste 0 1015.9 0.2 65
2019-07-31 11:00:00 20.4 9 Nordeste 17 Este 0 1015.9 0 67
2019-07-31 10:00:00 19.7 4 Este 13 Sur 0 1015.8 -0.1 76
2019-07-31 09:00:00 16.1 10 Sur 17 Sudoeste 0 1015.7 -0.1 88
2019-07-31 08:00:00 13.6 12 Sudoeste 18 Sudoeste 0 1015.9 -0.3 91
2019-07-31 07:00:00 13.2 12 Sur 16 Sur 0 1015.9 -0.4 92
2019-07-31 06:00:00 13.9 12 Sur 15 Sudoeste 0 1015.8 -0.9 92
2019-07-31 05:00:00 14.7 10 Sudoeste 13 Sur 0 1016.2 -1.2 92
2019-07-31 04:00:00 15.5 10 Sur 13 Sur 0 1016.3 -1.1 91
2019-07-31 03:00:00 16.4 8 Sudoeste 12 Sur 0 1016.7 -1 87
2019-07-31 02:00:00 17 8 Sur 11 Sur 0 1017.4 -0.4 86
2019-07-31 01:00:00 16.9 6 Sudoeste 12 Sur 0 1017.4 0.2 86
2019-07-31 00:00:00 17 5 Sur 14 Sur 0 1017.7 0.6 87
2019-07-30 23:00:00 17.1 5 Sudoeste 12 Sudoeste 0 1017.8 0.8 87
2019-07-30 22:00:00 17.2 6 Sur 15 Sur 0.1 1017.2 0.2 87
2019-07-30 21:00:00 18.3 3 Sudoeste 18 Nordeste 0 1017.1 0 78
2019-07-30 20:00:00 19 9 Norte 21 Norte 0 1017 0 71
2019-07-30 19:00:00 19.1 9 Noroeste 28 Norte 0 1017 0.1 74
2019-07-30 18:00:00 19.3 13 Noroeste 28 Noroeste 0 1017.1 0.2 78
2019-07-30 17:00:00 20.3 21 Noroeste 33 Noroeste 0 1017 0 73
2019-07-30 16:00:00 20.6 26 Noroeste 77 Noroeste 0 1016.9 0.1 71
2019-07-30 15:00:00 20.7 28 Noroeste 43 Noroeste 0 1016.9 0.3 69
2019-07-30 14:00:00 20.7 24 Noroeste 39 Noroeste 0 1017 0.8 67
2019-07-30 13:00:00 20 24 Noroeste 38 Noroeste 0 1016.8 0.6 66
2019-07-30 12:00:00 19.4 29 Noroeste 39 Noroeste 0 1016.6 1 65
2019-07-30 11:00:00 19.3 25 Noroeste 39 Noroeste 0 1016.2 1.2 68
2019-07-30 10:00:00 19.3 18 Oeste 29 Oeste 0 1016.2 1.9 62
2019-07-30 09:00:00 17.6 6 Sudoeste 32 Oeste 0 1015.6 1.7 72
2019-07-30 08:00:00 15.9 8 Sudoeste 24 Oeste 0 1015 1.1 80
2019-07-30 07:00:00 17.7 17 Oeste 35 Oeste 0 1014.3 0.7 66
2019-07-30 06:00:00 17.6 14 Oeste 31 Oeste 0 1013.9 0.4 64
2019-07-30 05:00:00 18.1 24 Oeste 40 Oeste 0 1013.9 0.8 66
2019-07-30 04:00:00 18.2 22 Oeste 42 Oeste 0 1013.6 0.9 68
2019-07-30 03:00:00 18.3 6 Sudoeste 33 Oeste 0 1013.5 1 75
2019-07-30 02:00:00 18.9 21 Noroeste 40 Oeste 0 1013.1 1.2 74
2019-07-30 01:00:00 19 25 Noroeste 40 Noroeste 0 1012.7 1.8 73
2019-07-30 00:00:00 19.2 22 Noroeste 45 Oeste 0 1012.5 2.1 77
2019-07-29 23:00:00 19 28 Noroeste 51 Noroeste 0.2 1011.9 1.9 82
2019-07-29 22:00:00 19.3 28 Noroeste 47 Oeste 0 1010.9 1.2 82
2019-07-29 21:00:00 19.9 27 Noroeste 42 Noroeste 0 1010.4 1 78
2019-07-29 20:00:00 20.2 25 Noroeste 42 Noroeste 0 1010 1 75
2019-07-29 19:00:00 20.5 23 Noroeste 39 Noroeste 0 1009.7 1.1 79
2019-07-29 18:00:00 21.2 20 Noroeste 31 Noroeste 0 1009.4 1.3 76
2019-07-29 17:00:00 21 21 Noroeste 30 Noroeste 0 1009 1.3 77
2019-07-29 16:00:00 20.9 15 Oeste 23 Oeste 0 1008.6 1.3 79
2019-07-29 15:00:00 20.8 14 Oeste 26 Noroeste 0 1008.1 0.9 79
2019-07-29 14:00:00 20.8 14 Noroeste 34 Noroeste 0 1007.7 0.9 82
2019-07-29 13:00:00 20.7 23 Noroeste 37 Noroeste 0 1007.3 1 81
2019-07-29 12:00:00 21.6 6 Noroeste 15 Noroeste 0 1007.2 1 74
2019-07-29 11:00:00 23.1 2 Nordeste 9 Sur 0 1006.8 1 67
2019-07-29 10:00:00 23.2 5 Sur 11 Sur 0 1006.3 1.5 72
2019-07-29 09:00:00 20.9 5 Sudoeste 14 Oeste 0 1006.2 1.9 81
2019-07-29 08:00:00 18.7 5 Sudoeste 16 Sudoeste 0 1005.8 1.3 88
2019-07-29 07:00:00 17.6 6 Oeste 15 Oeste 0 1004.8 0.5 91
2019-07-29 06:00:00 17 10 Sur 15 Sur 0 1004.3 0 90
2019-07-29 05:00:00 17.4 3 Sudoeste 15 Oeste 0 1004.5 0.2 91
2019-07-29 04:00:00 17.3 0 Calma 14 Oeste 0 1004.3 -0.3 92
2019-07-29 03:00:00 16.7 10 Sudoeste 11 Sudoeste 0 1004.3 -0.6 91
2019-07-29 02:00:00 16.9 8 Sudoeste 14 Sudoeste 0 1004.3 -1 91
2019-07-29 01:00:00 17.2 11 Sudoeste 14 Sur 0 1004.6 -0.8 91
2019-07-29 00:00:00 18 7 Sur 11 Sur 0 1004.9 -0.7 90
2019-07-28 23:00:00 19.3 7 Sudeste 19 Este 0 1005.3 -0.7 86
2019-07-28 22:00:00 20.2 9 Este 27 Nordeste 0 1005.4 -0.9 85
2019-07-28 21:00:00 20.8 9 Este 29 Este 0 1005.6 -1.3 81
2019-07-28 20:00:00 21.2 18 Este 31 Este 0 1006 -1.6 74
2019-07-28 19:00:00 21.3 18 Este 27 Este 0 1006.3 -1.8 75
2019-07-28 18:00:00 21.3 18 Nordeste 25 Este 0 1006.9 -1.7 74
2019-07-28 17:00:00 21.5 13 Nordeste 23 Este 0 1007.6 -1.2 77
2019-07-28 16:00:00 21.8 12 Nordeste 18 Este 0 1008.1 -1.1 78
2019-07-28 15:00:00 21.2 8 Norte 13 Norte 0 1008.6 -1 78
2019-07-28 14:00:00 20.7 9 Norte 13 Norte 0 1008.8 -0.9 78
2019-07-28 13:00:00 20.2 7 Norte 18 Nordeste 0 1009.2 -0.7 77
2019-07-28 12:00:00 20.1 7 Norte 15 Norte 0 1009.6 -0.1 69
2019-07-28 11:00:00 20.5 4 Norte 12 Sur 0 1009.7 -0.1 68
2019-07-28 10:00:00 19.4 4 Sudoeste 15 Sur 0 1009.9 0.3 77
2019-07-28 09:00:00 16.3 9 Sudoeste 18 Sur 0 1009.7 0.2 86
2019-07-28 08:00:00 15.2 8 Sudoeste 17 Sur 0 1009.8 0.2 89
2019-07-28 07:00:00 15.3 9 Sudoeste 15 Sudoeste 0 1009.6 -0.4 89
2019-07-28 06:00:00 15.4 7 Sudoeste 12 Sudoeste 0 1009.5 -0.8 90
2019-07-28 05:00:00 16 7 Sur 10 Sur 0 1009.6 -0.7 90
2019-07-28 04:00:00 16.6 4 Sur 17 Oeste 0 1010 -0.4 88
2019-07-28 03:00:00 16.5 3 Sudoeste 12 Oeste 0 1010.3 -0.1 87
2019-07-28 02:00:00 16.8 5 Oeste 15 Sudoeste 0 1010.3 0 87
2019-07-28 01:00:00 16.5 3 Sudoeste 14 Oeste 0 1010.4 0.8 88
2019-07-28 00:00:00 16.8 2 Sudoeste 30 Oeste 0.1 1010.4 0.9 88
2019-07-27 23:00:00 17.3 9 Oeste 17 Oeste 0 1010.3 1.1 89
2019-07-26 12:00:00 19.2 11 Oeste 20 Oeste 0.4 1011.7 0.5 91
2019-07-26 11:00:00 18.2 8 Oeste 18 Oeste 0.4 1011.5 0.4 92
2019-07-26 10:00:00 17.6 6 Sudoeste 18 Oeste 1.3 1011.4 0.7 93
2019-07-26 09:00:00 16.9 6 Oeste 22 Sudoeste 2.4 1011.2 0.6 93
2019-07-26 08:00:00 17.6 9 Oeste 27 Oeste 2.8 1011.1 0.4 93
2019-07-26 07:00:00 18.2 8 Oeste 16 Oeste 0.3 1010.7 -0.2 93
2019-07-26 06:00:00 18.3 5 Noroeste 13 Norte 3.6 1010.6 -0.6 93
2019-07-26 05:00:00 18.5 3 Sur 9 Sur 2.3 1010.7 -0.7 93
2019-07-26 04:00:00 18.5 5 Noroeste 22 Noroeste 0.3 1010.9 -0.3 93
2019-07-26 03:00:00 18.3 17 Noroeste 39 Noroeste 1.6 1011.2 0 93
2019-07-26 02:00:00 19.5 12 Oeste 20 Noroeste 0.2 1011.4 0.2 92
2019-07-26 01:00:00 20 6 Sudoeste 11 Sudoeste 0.2 1011.2 0.3 92
2019-07-26 00:00:00 20.2 6 Norte 11 Norte 0 1011.2 0.5 92
2019-07-25 23:00:00 20.2 10 Norte 23 Oeste 0 1011.2 1.6 92
2019-07-25 22:00:00 20.3 15 Oeste 32 Oeste 0 1010.9 1.9 91
2019-07-25 21:00:00 21.9 21 Noroeste 39 Noroeste 0 1010.7 2.1 90
2019-07-25 20:00:00 23.4 14 Noroeste 20 Noroeste 0 1009.6 1.4 89
2019-07-25 19:00:00 24.2 10 Noroeste 17 Noroeste 0 1009 0.8 88
2019-07-25 18:00:00 23.8 8 Noroeste 11 Noroeste 0 1008.6 0.5 89
2019-07-25 17:00:00 23.5 4 Norte 10 Oeste 0 1008.2 0.4 89
2019-07-25 16:00:00 23.6 5 Norte 10 Norte 0 1008.2 1 88
2019-07-25 15:00:00 23.5 5 Norte 14 Norte 0 1008.1 1.1 89
2019-07-25 14:00:00 24.5 10 Norte 14 Norte 0 1007.8 1.1 88
2019-07-25 13:00:00 23.5 6 Norte 13 Nordeste 0 1007.2 0.4 88
2019-07-25 12:00:00 24.3 9 Norte 11 Norte 0 1007 0.2 88
2019-07-25 11:00:00 23.4 0 Calma 8 Noroeste 0 1006.7 0.6 90
2019-07-25 10:00:00 22.3 3 Noroeste 7 Oeste 0 1006.8 1 92
2019-07-25 09:00:00 21.9 0 Calma 6 Sudeste 0 1006.8 1.6 92
2019-07-25 08:00:00 21.6 0 Calma 5 Sudoeste 0 1006.1 0.5 92
2019-07-25 07:00:00 21.6 0 Calma 6 Este 0 1005.8 -0.4 92
2019-07-25 06:00:00 21.7 2 Sudeste 9 Este 0 1005.2 -1.5 92
2019-07-25 05:00:00 22 0 Calma 5 Este 0 1005.6 -1.8 92
2019-07-25 04:00:00 22.2 0 Calma 5 Sur 0 1006.2 -1.6 92
2019-07-25 03:00:00 22.2 0 Calma 8 Sudoeste 0 1006.7 -1 92
2019-07-25 02:00:00 22.3 2 Sur 6 Sudoeste 0 1007.4 0.3 92
2019-07-25 01:00:00 22.4 2 Oeste 13 Oeste 0 1007.8 1.5 92
2019-07-25 00:00:00 22.4 9 Oeste 14 Oeste 0 1007.7 1.6 92
2019-07-24 23:00:00 22.4 9 Oeste 13 Oeste 0 1007.1 1.2 92
2019-07-24 22:00:00 22.8 8 Oeste 12 Oeste 0 1006.3 0.2 92
2019-07-24 21:00:00 23 5 Noroeste 8 Noroeste 0 1006.1 -0.5 92
2019-07-24 20:00:00 23.1 3 Nordeste 7 Norte 0 1005.9 -1 91
2019-07-24 19:00:00 23.6 4 Norte 12 Este 0 1006.1 -1.4 91
2019-07-24 18:00:00 24.3 8 Nordeste 20 Este 0 1006.6 -1.5 88
2019-07-24 17:00:00 24.3 12 Nordeste 19 Nordeste 0 1006.9 -1.9 88
2019-07-24 16:00:00 24.8 7 Nordeste 13 Este 0 1007.5 -1.8 89
2019-07-24 15:00:00 23.9 7 Nordeste 12 Nordeste 0 1008.1 -1.8 90
2019-07-24 14:00:00 23.2 6 Norte 13 Oeste 0 1008.8 -1.1 90
2019-07-24 13:00:00 23.1 5 Noroeste 15 Noroeste 0 1009.3 -1.3 90
2019-07-24 12:00:00 22.7 6 Norte 14 Este 0.1 1009.9 -1.1 90
2019-07-24 11:00:00 23 8 Nordeste 15 Este 0 1009.9 -1.1 89
2019-07-24 10:00:00 22.2 3 Sudeste 9 Este 0 1010.6 -0.2 91
2019-07-24 09:00:00 21 5 Sur 7 Sur 0 1011 0.3 92
2019-07-24 08:00:00 20.6 0 Calma 6 Sur 0 1011 0.3 92
2019-07-24 07:00:00 20.5 4 Sur 7 Sur 0 1010.8 -0.5 92
2019-07-24 06:00:00 20.5 0 Calma 13 Oeste 0 1010.7 0.2 92
2019-07-24 05:00:00 20.6 7 Oeste 15 Oeste 0 1010.7 -0.1 92
2019-07-24 04:00:00 20.6 0 Calma 25 Oeste 0 1011.3 -0.7 92
2019-07-24 03:00:00 20.5 15 Oeste 38 Oeste 0 1010.5 -0.4 92
2019-07-24 02:00:00 20.5 16 Noroeste 26 Noroeste 0 1010.8 -2.6 92
2019-07-24 01:00:00 20.4 7 Sudeste 21 Este 0 1012 -0.2 92
2019-07-24 00:00:00 20.5 8 Sudeste 29 Noroeste 0.3 1010.9 -3 92
2019-07-23 23:00:00 21.2 9 Noroeste 27 Oeste 0 1013.4 1.1 91
2019-07-23 22:00:00 21.3 4 Sudeste 19 Noroeste 0 1012.2 1.4 91
2019-07-23 21:00:00 21.7 2 Este 31 Oeste 0 1013.9 3.8 92
2019-07-23 20:00:00 21.5 15 Oeste 31 Oeste 0 1012.3 2.2 92
2019-07-23 19:00:00 21.8 17 Oeste 27 Oeste 0 1010.8 1.1 91
2019-07-23 18:00:00 22.5 13 Oeste 21 Oeste 0 1010.1 0.7 90
2019-07-23 17:00:00 23.2 13 Noroeste 23 Noroeste 0 1010.1 0.9 90
2019-07-23 16:00:00 23.8 14 Noroeste 26 Oeste 0 1009.7 0.2 89
2019-07-23 15:00:00 22.7 14 Noroeste 21 Noroeste 0 1009.4 0.2 92
2019-07-23 14:00:00 22.4 8 Noroeste 18 Noroeste 0 1009.2 0.3 92
2019-07-23 13:00:00 22 9 Noroeste 26 Oeste 0 1009.5 0.5 92
2019-07-23 12:00:00 21 16 Oeste 33 Noroeste 0 1009.2 0.3 92
2019-07-23 11:00:00 22.6 11 Noroeste 18 Noroeste 0 1008.9 0 92
2019-07-23 10:00:00 22 10 Noroeste 17 Noroeste 0.2 1009 0 92
2019-07-23 09:00:00 21.1 2 Sudoeste 13 Oeste 0 1008.9 0 92
2019-07-23 08:00:00 20.5 4 Oeste 15 Oeste 0 1008.9 -0.4 92
2019-07-23 07:00:00 20.1 4 Sur 14 Oeste 0 1009 -1.1 92
2019-07-23 06:00:00 20.1 3 Sudoeste 9 Sudoeste 0 1008.9 -1.4 92
2019-07-23 05:00:00 20.6 3 Sudoeste 10 Oeste 0 1009.3 -1.4 92
2019-07-23 04:00:00 20.9 6 Oeste 30 Noroeste 0 1010.1 -2.1 92
2019-07-23 03:00:00 20.8 13 Oeste 21 Oeste 0 1010.3 -2.9 92
2019-07-23 02:00:00 20.8 11 Sudeste 23 Sur 0 1010.7 -2.5 92
2019-07-23 01:00:00 20.5 15 Sur 22 Sur 0 1012.2 -1.1 93
2019-07-23 00:00:00 20.8 7 Sudeste 16 Sudeste 0.1 1013.2 -0.1 93
2019-07-22 23:00:00 20.9 15 Oeste 23 Noroeste 2.5 1013.2 0.2 92
2019-07-22 22:00:00 21.6 6 Sur 12 Sur 0.2 1013.3 0.1 92
2019-07-22 21:00:00 22.1 2 Oeste 9 Nordeste 0.9 1013.3 -0.5 91
2019-07-22 20:00:00 22.3 3 Nordeste 6 Norte 0 1013 -1 91
2019-07-22 19:00:00 22.6 4 Nordeste 7 Norte 0 1013.2 -1.3 91
2019-07-22 18:00:00 22.9 6 Nordeste 9 Nordeste 0 1013.8 -1.3 91
2019-07-22 17:00:00 23 6 Nordeste 10 Nordeste 0 1014 -1.6 91
2019-07-22 16:00:00 23.4 6 Nordeste 14 Este 0 1014.5 -1.3 89
2019-07-22 15:00:00 23.3 10 Nordeste 17 Este 0 1015.1 -0.6 89
2019-07-22 14:00:00 23 12 Nordeste 21 Este 0 1015.6 -0.4 89
2019-07-22 13:00:00 23.1 15 Nordeste 21 Este 0 1015.8 -0.4 89
2019-07-22 12:00:00 23.3 10 Nordeste 17 Nordeste 0 1015.7 -1.1 89
2019-07-22 11:00:00 22.7 9 Nordeste 14 Este 0 1016 -0.9 90
2019-07-22 10:00:00 22 6 Este 13 Este 0 1016.2 -0.7 91
2019-07-22 09:00:00 21.4 4 Nordeste 6 Este 0 1016.8 -0.2 91
2019-07-22 08:00:00 20.8 0 Calma 4 Este 0 1016.9 -0.2 91
2019-07-22 07:00:00 20.7 2 Sudeste 10 Sudeste 0 1016.9 -0.6 91
2019-07-22 06:00:00 20.5 4 Sudeste 11 Este 0 1017 -1.2 92
2019-07-22 05:00:00 20.7 3 Este 12 Este 0 1017.1 -1.4 92
2019-07-22 04:00:00 20.7 6 Este 11 Este 0 1017.5 -1.4 91
2019-07-22 03:00:00 20.8 5 Este 12 Este 0 1018.2 -1 91
2019-07-22 02:00:00 21 6 Este 13 Este 0 1018.5 -0.8 91
2019-07-22 01:00:00 21 6 Este 12 Este 0 1018.9 0.3 91
2019-07-22 00:00:00 21.1 8 Este 14 Este 0 1019.2 0.8 91
2019-07-21 23:00:00 21.3 7 Este 17 Este 0 1019.3 1.3 92
2019-07-21 22:00:00 21.4 7 Este 13 Este 0 1018.6 0.6 91
2019-07-21 21:00:00 21.9 5 Nordeste 8 Este 0 1018.4 0.3 91
2019-07-21 20:00:00 22 6 Nordeste 13 Este 0 1018 0.3 90
2019-07-21 19:00:00 22.1 5 Este 14 Este 0 1018 0.8 90
2019-07-21 18:00:00 21.9 7 Nordeste 19 Nordeste 0 1018.1 1.2 90
2019-07-21 17:00:00 21.7 12 Nordeste 29 Este 0 1017.7 0.3 90
2019-07-21 16:00:00 21.6 22 Nordeste 33 Este 0 1017.2 -0.6 89
2019-07-21 15:00:00 22 18 Nordeste 28 Este 0 1016.9 -1.1 88
2019-07-21 14:00:00 22.2 11 Nordeste 17 Nordeste 0 1017.4 -0.4 90
2019-07-21 13:00:00 21 13 Nordeste 19 Nordeste 0 1017.8 0.3 91
2019-07-21 12:00:00 20.6 2 Nordeste 8 Este 0.1 1018 0.8 92
2019-07-21 11:00:00 20.2 3 Sur 9 Sudoeste 0 1017.8 1.2 92
2019-07-21 10:00:00 19.5 5 Sudoeste 9 Sudoeste 0 1017.5 1.4 93
2019-07-21 09:00:00 19.1 6 Sudoeste 8 Sudoeste 0 1017.2 1.1 93
2019-07-21 08:00:00 18.8 2 Sudoeste 9 Sudoeste 0 1016.6 0.4 93
2019-07-21 07:00:00 18.9 5 Sudoeste 7 Sudoeste 0 1016.1 -0.1 93
2019-07-21 06:00:00 18.9 5 Sudoeste 9 Sudoeste 0 1016.1 -0.5 93
2019-07-21 05:00:00 19.1 5 Sur 7 Sur 0 1016.2 -0.8 93
2019-07-21 04:00:00 19 4 Sur 10 Sur 0 1016.2 -1.3 93
2019-07-21 03:00:00 19.1 4 Sur 13 Sur 0 1016.6 -0.6 93
2019-07-21 02:00:00 19.1 8 Sur 13 Sur 1.3 1017 0.2 93
2019-07-21 01:00:00 19.4 5 Este 10 Este 0.7 1017.5 1.4 92
2019-07-21 00:00:00 19.8 3 Norte 20 Norte 4.1 1017.2 1.7 92